createdAt,value
2018-03-27T00:00:39.850Z,2.40
2018-03-27T00:03:08.030Z,2.40
2018-03-27T00:05:36.164Z,2.40
2018-03-27T00:08:04.287Z,2.50
2018-03-27T00:10:33.234Z,2.40
2018-03-27T00:13:01.382Z,2.40
2018-03-27T00:15:29.532Z,2.40
2018-03-27T00:17:58.477Z,2.30
2018-03-27T00:20:26.631Z,2.30
2018-03-27T00:22:54.832Z,2.20
2018-03-27T00:25:23.018Z,2.20
2018-03-27T00:28:03.191Z,2.30
2018-03-27T00:30:43.766Z,2.20
2018-03-27T00:33:23.898Z,2.20
2018-03-27T00:36:04.680Z,2.20
2018-03-27T00:38:45.620Z,2.10
2018-03-27T00:41:34.588Z,2.10
2018-03-27T00:44:02.743Z,2.10
2018-03-27T00:46:30.881Z,2.00
2018-03-27T00:48:59.071Z,2.00
2018-03-27T00:51:27.245Z,1.90
2018-03-27T00:53:55.601Z,1.90
2018-03-27T00:56:23.840Z,1.90
2018-03-27T00:58:51.969Z,1.90
2018-03-27T01:01:20.145Z,1.80
2018-03-27T01:03:48.310Z,1.80
2018-03-27T01:06:16.456Z,1.80
2018-03-27T01:08:45.365Z,1.80
2018-03-27T01:11:13.526Z,1.80
2018-03-27T01:13:42.429Z,1.80
2018-03-27T01:16:10.920Z,1.80
2018-03-27T01:18:39.078Z,1.80
2018-03-27T01:21:07.218Z,1.80
2018-03-27T01:23:35.835Z,1.70
2018-03-27T01:26:03.980Z,1.70
2018-03-27T01:28:32.253Z,1.80
2018-03-27T01:31:00.549Z,1.70
2018-03-27T01:33:29.615Z,1.60
2018-03-27T01:35:57.767Z,1.60
2018-03-27T01:38:25.958Z,1.60
2018-03-27T01:40:54.926Z,1.60
2018-03-27T01:43:23.077Z,1.60
2018-03-27T01:45:51.314Z,1.50
2018-03-27T01:48:19.598Z,1.50
2018-03-27T01:50:47.740Z,1.50
2018-03-27T01:53:15.880Z,1.50
2018-03-27T01:55:44.053Z,1.50
2018-03-27T01:58:12.196Z,1.40
2018-03-27T02:00:41.114Z,1.30
2018-03-27T02:03:09.474Z,1.20
2018-03-27T02:05:38.613Z,1.20
2018-03-27T02:08:07.046Z,1.20
2018-03-27T02:10:35.471Z,1.10
2018-03-27T02:13:09.438Z,1.10
2018-03-27T02:15:44.241Z,1.20
2018-03-27T02:18:18.410Z,1.10
2018-03-27T02:20:52.681Z,1.20
2018-03-27T02:23:20.813Z,1.20
2018-03-27T02:25:48.964Z,1.20
2018-03-27T02:28:17.199Z,1.10
2018-03-27T02:30:45.923Z,1.00
2018-03-27T02:33:14.064Z,1.00
2018-03-27T02:35:42.214Z,1.00
2018-03-27T02:38:10.354Z,0.90
2018-03-27T02:40:38.601Z,0.90
2018-03-27T02:43:07.532Z,0.80
2018-03-27T02:45:35.729Z,0.80
2018-03-27T02:48:03.870Z,0.80
2018-03-27T02:50:32.092Z,0.70
2018-03-27T02:53:01.744Z,0.60
2018-03-27T02:55:29.938Z,0.60
2018-03-27T02:57:58.178Z,0.50
2018-03-27T03:00:26.376Z,0.50
2018-03-27T03:02:54.652Z,0.50
2018-03-27T03:05:22.826Z,0.50
2018-03-27T03:07:50.985Z,0.50
2018-03-27T03:10:19.443Z,0.50
2018-03-27T03:12:47.687Z,0.40
2018-03-27T03:15:15.878Z,0.40
2018-03-27T03:17:44.280Z,0.40
2018-03-27T03:20:13.344Z,0.30
2018-03-27T03:22:41.501Z,0.30
2018-03-27T03:25:09.663Z,0.30
2018-03-27T03:27:37.822Z,0.40
2018-03-27T03:30:06.086Z,0.40
2018-03-27T03:32:34.338Z,0.40
2018-03-27T03:35:03.308Z,0.60
2018-03-27T03:37:31.442Z,0.60
2018-03-27T03:39:59.612Z,0.60
2018-03-27T03:42:27.759Z,0.60
2018-03-27T03:44:56.686Z,0.70
2018-03-27T03:47:24.823Z,0.70
2018-03-27T03:49:53.744Z,0.80
2018-03-27T03:52:21.890Z,0.80
2018-03-27T03:54:50.901Z,1.00
2018-03-27T03:57:19.109Z,1.00
2018-03-27T03:59:47.306Z,1.10
2018-03-27T04:02:15.710Z,1.20
2018-03-27T04:04:44.990Z,1.60
2018-03-27T04:07:13.137Z,1.60
2018-03-27T04:09:41.369Z,1.70
2018-03-27T04:12:09.719Z,1.90
2018-03-27T04:14:37.870Z,2.10
2018-03-27T04:17:06.027Z,2.20
2018-03-27T04:19:34.189Z,2.20
2018-03-27T04:22:02.555Z,2.40
2018-03-27T04:24:31.656Z,2.40
2018-03-27T04:26:59.869Z,2.50
2018-03-27T04:29:28.209Z,2.60
2018-03-27T04:31:56.726Z,2.60
2018-03-27T04:34:24.970Z,2.70
2018-03-27T04:36:53.180Z,2.90
2018-03-27T04:39:21.334Z,3.00
2018-03-27T04:41:49.498Z,3.10
2018-03-27T04:44:17.650Z,3.10
2018-03-27T04:46:46.028Z,3.20
2018-03-27T04:49:14.197Z,3.30
2018-03-27T04:51:42.406Z,3.30
2018-03-27T04:54:11.059Z,3.30
2018-03-27T04:56:39.231Z,3.40
2018-03-27T04:59:07.381Z,3.50
2018-03-27T05:01:35.540Z,3.50
2018-03-27T05:04:03.700Z,3.60
2018-03-27T05:06:32.150Z,3.70
2018-03-27T05:09:00.328Z,3.70
2018-03-27T05:11:28.504Z,3.80
2018-03-27T05:13:56.823Z,3.90
2018-03-27T05:16:25.063Z,3.90
2018-03-27T05:18:53.503Z,4.00
2018-03-27T05:21:21.641Z,4.10
2018-03-27T05:23:49.781Z,4.20
2018-03-27T05:26:18.021Z,4.30
2018-03-27T05:28:46.967Z,4.20
2018-03-27T05:31:15.334Z,4.20
2018-03-27T05:33:43.586Z,4.30
2018-03-27T05:36:11.784Z,4.30
2018-03-27T05:38:40.343Z,4.40
2018-03-27T05:41:09.348Z,4.50
2018-03-27T05:43:37.655Z,4.50
2018-03-27T05:46:05.818Z,4.60
2018-03-27T05:48:34.137Z,4.60
2018-03-27T05:51:02.488Z,4.70
2018-03-27T05:53:30.629Z,4.70
2018-03-27T05:55:58.926Z,4.70
2018-03-27T05:58:27.197Z,4.80
2018-03-27T06:00:55.334Z,4.90
2018-03-27T06:03:23.511Z,4.90
2018-03-27T06:05:51.694Z,5.00
2018-03-27T06:08:19.858Z,5.00
2018-03-27T06:10:48.031Z,5.10
2018-03-27T06:13:16.296Z,5.10
2018-03-27T06:15:45.208Z,5.10
2018-03-27T06:18:13.383Z,5.10
2018-03-27T06:20:41.556Z,5.30
2018-03-27T06:23:09.687Z,5.40
2018-03-27T06:25:37.959Z,5.50
2018-03-27T06:28:06.083Z,5.60
2018-03-27T06:30:34.255Z,5.60
2018-03-27T06:33:02.708Z,5.70
2018-03-27T06:35:31.616Z,5.80
2018-03-27T06:37:59.756Z,5.80
2018-03-27T06:40:28.073Z,5.90
2018-03-27T06:42:56.335Z,6.00
2018-03-27T06:45:24.475Z,6.10
2018-03-27T06:47:52.679Z,6.30
2018-03-27T06:50:20.996Z,6.40
2018-03-27T06:52:49.152Z,6.50
2018-03-27T06:55:17.350Z,6.60
2018-03-27T06:57:45.482Z,6.60
2018-03-27T07:00:13.671Z,6.70
2018-03-27T07:05:16.448Z,6.90
2018-03-27T07:07:46.136Z,6.90
2018-03-27T07:10:14.261Z,6.90
2018-03-27T07:12:42.403Z,7.00
2018-03-27T07:15:11.383Z,7.10
2018-03-27T07:17:39.489Z,7.10
2018-03-27T07:20:07.656Z,7.10
2018-03-27T07:22:36.392Z,7.20
2018-03-27T07:25:04.549Z,7.30
2018-03-27T07:27:32.706Z,7.30
2018-03-27T07:30:01.355Z,7.30
2018-03-27T07:32:29.502Z,7.30
2018-03-27T07:34:57.634Z,7.40
2018-03-27T07:37:25.846Z,7.50
2018-03-27T07:39:54.141Z,7.40
2018-03-27T07:42:22.436Z,7.40
2018-03-27T07:44:50.726Z,7.40
2018-03-27T07:47:18.871Z,7.40
2018-03-27T07:49:47.771Z,7.40
2018-03-27T07:52:16.697Z,7.60
2018-03-27T07:54:44.825Z,7.50
2018-03-27T07:57:13.879Z,8.00
2018-03-27T07:59:42.243Z,7.90
2018-03-27T08:02:10.490Z,8.00
2018-03-27T08:04:39.577Z,8.10
2018-03-27T08:07:08.487Z,8.40
2018-03-27T08:09:36.696Z,8.30
2018-03-27T08:12:04.923Z,8.50
2018-03-27T08:14:33.849Z,8.80
2018-03-27T08:17:01.997Z,8.80
2018-03-27T08:19:30.158Z,8.90
2018-03-27T08:21:59.131Z,9.10
2018-03-27T08:24:27.390Z,9.10
2018-03-27T08:26:55.571Z,9.20
2018-03-27T08:29:23.927Z,9.30
2018-03-27T08:31:52.152Z,9.60
2018-03-27T08:34:21.850Z,10.30
2018-03-27T08:36:50.015Z,10.30
2018-03-27T08:39:18.189Z,10.50
2018-03-27T08:41:46.344Z,10.60
2018-03-27T08:44:14.505Z,10.50
2018-03-27T08:46:42.650Z,10.40
2018-03-27T08:49:10.918Z,10.20
2018-03-27T08:51:39.242Z,10.10
2018-03-27T08:54:08.106Z,10.00
2018-03-27T08:56:36.247Z,9.90
2018-03-27T08:59:04.898Z,9.90
2018-03-27T09:01:33.133Z,9.90
2018-03-27T09:04:01.424Z,9.90
2018-03-27T09:06:29.686Z,9.90
2018-03-27T09:08:58.009Z,9.90
2018-03-27T09:11:26.159Z,9.80
2018-03-27T09:13:54.433Z,9.70
2018-03-27T09:16:22.649Z,9.80
2018-03-27T09:18:51.733Z,9.90
2018-03-27T09:21:19.987Z,9.80
2018-03-27T09:23:48.407Z,9.80
2018-03-27T09:26:17.475Z,10.10
2018-03-27T09:28:45.716Z,10.10
2018-03-27T09:31:15.036Z,10.20
2018-03-27T09:33:43.287Z,10.20
2018-03-27T09:36:11.645Z,10.20
2018-03-27T09:38:39.814Z,10.00
2018-03-27T09:41:07.959Z,10.00
2018-03-27T09:43:36.905Z,9.80
2018-03-27T09:46:05.383Z,9.80
2018-03-27T09:48:33.551Z,9.70
2018-03-27T09:51:02.170Z,9.60
2018-03-27T09:53:30.328Z,9.50
2018-03-27T09:55:58.477Z,9.50
2018-03-27T09:58:26.709Z,9.40
2018-03-27T10:00:54.920Z,9.40
2018-03-27T10:03:23.189Z,9.60
2018-03-27T10:05:51.402Z,9.80
2018-03-27T10:08:19.603Z,10.00
2018-03-27T10:10:47.913Z,10.00
2018-03-27T10:13:16.943Z,10.20
2018-03-27T10:15:45.107Z,10.20
2018-03-27T10:18:14.148Z,10.30
2018-03-27T10:20:42.418Z,10.10
2018-03-27T10:23:10.729Z,10.00
2018-03-27T10:25:38.862Z,9.90
2018-03-27T10:28:07.037Z,9.90
2018-03-27T10:30:35.353Z,9.80
2018-03-27T10:33:04.272Z,9.70
2018-03-27T10:35:32.431Z,9.70
2018-03-27T10:38:00.606Z,9.60
2018-03-27T10:40:28.778Z,9.60
2018-03-27T10:42:57.093Z,9.60
2018-03-27T10:45:26.053Z,9.60
2018-03-27T10:47:54.214Z,9.60
2018-03-27T10:50:23.143Z,9.40
2018-03-27T10:52:51.418Z,9.40
2018-03-27T10:55:20.375Z,9.40
2018-03-27T10:57:49.275Z,9.30
2018-03-27T11:00:17.560Z,9.30
2018-03-27T11:02:45.714Z,9.20
2018-03-27T11:05:14.630Z,9.60
2018-03-27T11:07:42.768Z,9.50
2018-03-27T11:10:10.921Z,9.80
2018-03-27T11:12:39.081Z,10.00
2018-03-27T11:15:07.236Z,10.10
2018-03-27T11:17:35.421Z,10.00
2018-03-27T11:20:03.775Z,9.90
2018-03-27T11:22:33.012Z,9.80
2018-03-27T11:25:01.174Z,9.80
2018-03-27T11:27:29.442Z,9.70
2018-03-27T11:29:57.679Z,9.80
2018-03-27T11:32:26.575Z,9.70
2018-03-27T11:34:54.740Z,9.70
2018-03-27T11:37:23.646Z,10.30
2018-03-27T11:39:51.809Z,10.20
2018-03-27T11:42:19.977Z,10.30
2018-03-27T11:44:48.917Z,10.10
2018-03-27T11:47:17.071Z,10.10
2018-03-27T11:49:45.244Z,10.00
2018-03-27T11:52:13.386Z,9.80
2018-03-27T11:54:42.496Z,9.90
2018-03-27T11:57:10.669Z,9.90
2018-03-27T11:59:38.799Z,9.90
2018-03-27T12:02:06.946Z,9.90
2018-03-27T12:04:35.129Z,9.70
2018-03-27T12:07:03.514Z,9.80
2018-03-27T12:09:31.713Z,9.70
2018-03-27T12:11:59.871Z,9.60
2018-03-27T12:14:28.020Z,9.50
2018-03-27T12:16:57.043Z,9.40
2018-03-27T12:19:25.262Z,9.40
2018-03-27T12:21:54.180Z,9.50
2018-03-27T12:24:22.326Z,9.50
2018-03-27T12:26:50.512Z,9.40
2018-03-27T12:29:18.676Z,9.40
2018-03-27T12:31:46.896Z,9.40
2018-03-27T12:34:15.266Z,9.30
2018-03-27T12:36:43.402Z,9.30
2018-03-27T12:39:11.626Z,9.30
2018-03-27T12:41:39.798Z,9.20
2018-03-27T12:44:09.232Z,9.30
2018-03-27T12:46:38.557Z,9.40
2018-03-27T12:49:06.724Z,9.40
2018-03-27T12:51:34.883Z,9.60
2018-03-27T12:54:03.074Z,9.60
2018-03-27T12:56:31.453Z,9.60
2018-03-27T12:58:59.651Z,9.70
2018-03-27T13:01:27.768Z,9.60
2018-03-27T13:03:56.136Z,9.60
2018-03-27T13:06:24.279Z,9.40
2018-03-27T13:08:52.498Z,9.20
2018-03-27T13:11:22.338Z,8.80
2018-03-27T13:13:50.496Z,8.80
2018-03-27T13:16:19.458Z,8.60
2018-03-27T13:18:47.625Z,8.60
2018-03-27T13:21:15.778Z,8.60
2018-03-27T13:23:43.989Z,8.70
2018-03-27T13:26:12.962Z,8.80
2018-03-27T13:28:41.120Z,8.80
2018-03-27T13:31:09.870Z,9.10
2018-03-27T13:33:38.061Z,9.30
2018-03-27T13:36:06.252Z,9.40
2018-03-27T13:38:35.046Z,9.40
2018-03-27T13:41:03.196Z,9.40
2018-03-27T13:43:31.388Z,9.40
2018-03-27T13:45:59.572Z,9.40
2018-03-27T13:48:27.717Z,9.30
2018-03-27T13:50:55.877Z,9.40
2018-03-27T13:53:24.023Z,9.50
2018-03-27T13:55:52.209Z,9.50
2018-03-27T13:58:20.577Z,9.60
2018-03-27T14:00:49.809Z,9.60
2018-03-27T14:03:18.060Z,9.70
2018-03-27T14:05:47.164Z,9.70
2018-03-27T14:08:16.081Z,9.60
2018-03-27T14:10:44.331Z,9.60
2018-03-27T14:13:12.853Z,9.60
2018-03-27T14:15:40.995Z,9.50
2018-03-27T14:18:09.179Z,9.50
2018-03-27T14:20:37.717Z,9.50
2018-03-27T14:23:05.873Z,9.60
2018-03-27T14:25:34.036Z,9.60
2018-03-27T14:28:02.277Z,9.70
2018-03-27T14:30:30.430Z,9.70
2018-03-27T14:32:58.872Z,9.70
2018-03-27T14:35:28.620Z,9.60
2018-03-27T14:37:57.770Z,9.40
2018-03-27T14:40:25.973Z,9.40
2018-03-27T14:42:54.122Z,9.40
2018-03-27T14:45:22.244Z,9.30
2018-03-27T14:47:51.226Z,9.30
2018-03-27T14:50:20.576Z,9.20
2018-03-27T14:52:48.700Z,9.20
2018-03-27T14:55:18.109Z,9.00
2018-03-27T14:57:46.382Z,9.00
2018-03-27T15:00:15.294Z,9.00
2018-03-27T15:02:43.703Z,9.00
2018-03-27T15:05:11.850Z,9.10
2018-03-27T15:07:40.048Z,9.10
2018-03-27T15:10:08.405Z,9.30
2018-03-27T15:12:36.918Z,9.30
2018-03-27T15:15:08.902Z,9.30
2018-03-27T15:17:37.387Z,9.20
2018-03-27T15:20:05.531Z,9.10
2018-03-27T15:22:34.134Z,9.10
2018-03-27T15:25:02.717Z,9.20
2018-03-27T15:27:31.127Z,9.20
2018-03-27T15:30:00.427Z,9.20
2018-03-27T15:32:29.352Z,9.40
2018-03-27T15:34:57.652Z,9.40
2018-03-27T15:37:25.977Z,9.30
2018-03-27T15:39:55.025Z,9.30
2018-03-27T15:42:23.180Z,9.30
2018-03-27T15:44:51.335Z,9.30
2018-03-27T15:47:19.600Z,9.20
2018-03-27T15:49:48.552Z,9.10
2018-03-27T15:52:16.715Z,9.10
2018-03-27T15:54:44.854Z,9.10
2018-03-27T15:57:13.069Z,9.10
2018-03-27T15:59:41.469Z,9.10
2018-03-27T16:02:09.752Z,9.10
2018-03-27T16:04:38.717Z,8.90
2018-03-27T16:07:06.896Z,8.90
2018-03-27T16:09:35.249Z,8.90
2018-03-27T16:12:03.535Z,8.90
2018-03-27T16:14:31.722Z,8.90
2018-03-27T16:16:59.911Z,8.80
2018-03-27T16:19:28.996Z,8.60
2018-03-27T16:21:57.404Z,8.60
2018-03-27T16:24:26.447Z,8.50
2018-03-27T16:26:54.813Z,8.50
2018-03-27T16:29:22.990Z,8.60
2018-03-27T16:31:51.230Z,8.50
2018-03-27T16:34:19.446Z,8.40
2018-03-27T16:36:48.669Z,8.50
2018-03-27T16:39:16.827Z,8.50
2018-03-27T16:41:45.281Z,8.50
2018-03-27T16:44:13.632Z,8.50
2018-03-27T16:46:43.631Z,8.50
2018-03-27T16:49:12.587Z,8.50
2018-03-27T16:51:41.137Z,8.50
2018-03-27T16:54:09.289Z,8.50
2018-03-27T16:56:38.196Z,8.50
2018-03-27T16:59:07.276Z,8.50
2018-03-27T17:01:36.203Z,8.40
2018-03-27T17:04:04.362Z,8.40
2018-03-27T17:06:32.803Z,8.50
2018-03-27T17:09:00.944Z,8.50
2018-03-27T17:11:29.183Z,8.50
2018-03-27T17:13:57.382Z,8.50
2018-03-27T17:16:25.553Z,8.50
2018-03-27T17:18:53.727Z,8.40
2018-03-27T17:21:22.178Z,8.40
2018-03-27T17:23:51.218Z,8.40
2018-03-27T17:26:19.601Z,8.40
2018-03-27T17:28:47.899Z,8.30
2018-03-27T17:31:17.036Z,8.20
2018-03-27T17:33:46.178Z,8.20
2018-03-27T17:36:14.501Z,8.20
2018-03-27T17:38:43.602Z,8.20
2018-03-27T17:41:12.618Z,8.20
2018-03-27T17:43:40.789Z,8.20
2018-03-27T17:46:09.660Z,8.20
2018-03-27T17:48:37.825Z,8.10
2018-03-27T17:51:06.789Z,8.10
2018-03-27T17:53:36.160Z,8.10
2018-03-27T17:56:04.514Z,8.10
2018-03-27T17:58:32.698Z,8.10
2018-03-27T18:01:00.996Z,8.10
2018-03-27T18:03:29.273Z,8.10
2018-03-27T18:05:57.502Z,8.10
2018-03-27T18:08:26.457Z,8.20
2018-03-27T18:10:54.643Z,8.20
2018-03-27T18:13:24.603Z,8.20
2018-03-27T18:15:52.977Z,8.20
2018-03-27T18:18:21.722Z,8.20
2018-03-27T18:20:49.899Z,8.20
2018-03-27T18:23:19.131Z,8.20
2018-03-27T18:25:47.331Z,8.20
2018-03-27T18:28:15.575Z,8.20
2018-03-27T18:30:44.361Z,8.30
2018-03-27T18:33:13.285Z,8.30
2018-03-27T18:35:41.477Z,8.20
2018-03-27T18:38:09.635Z,8.30
2018-03-27T18:40:37.779Z,8.30
2018-03-27T18:43:07.685Z,8.40
2018-03-27T18:45:36.651Z,8.40
2018-03-27T18:48:04.812Z,8.40
2018-03-27T18:50:33.005Z,8.40
2018-03-27T18:53:01.160Z,8.50
2018-03-27T18:55:29.304Z,8.40
2018-03-27T18:58:01.681Z,8.50
2018-03-27T19:00:30.128Z,8.50
2018-03-27T19:02:59.051Z,8.50
2018-03-27T19:05:27.208Z,8.50
2018-03-27T19:07:55.356Z,8.50
2018-03-27T19:10:24.583Z,8.60
2018-03-27T19:12:52.839Z,8.60
2018-03-27T19:15:21.873Z,8.60
2018-03-27T19:17:50.325Z,8.60
2018-03-27T19:20:19.055Z,8.70
2018-03-27T19:22:47.193Z,8.70
2018-03-27T19:25:15.367Z,8.80
2018-03-27T19:27:43.734Z,8.80
2018-03-27T19:30:12.000Z,8.80
2018-03-27T19:32:40.426Z,8.90
2018-03-27T19:35:08.789Z,8.90
2018-03-27T19:37:37.029Z,9.00
2018-03-27T19:40:06.180Z,9.00
2018-03-27T19:42:34.922Z,9.00
2018-03-27T19:45:03.288Z,9.00
2018-03-27T19:47:32.211Z,9.00
2018-03-27T19:50:00.503Z,9.00
2018-03-27T19:52:28.769Z,9.10
2018-03-27T19:54:57.726Z,9.10
2018-03-27T19:57:25.977Z,9.10
2018-03-27T19:59:54.193Z,9.10
2018-03-27T20:02:22.510Z,9.10
2018-03-27T20:04:51.451Z,9.10
2018-03-27T20:07:20.389Z,9.20
2018-03-27T20:09:48.579Z,9.20
2018-03-27T20:12:17.090Z,9.20
2018-03-27T20:14:46.703Z,9.30
2018-03-27T20:17:15.091Z,9.20
2018-03-27T20:19:43.689Z,9.20
2018-03-27T20:22:12.503Z,9.30
2018-03-27T20:24:40.800Z,9.30
2018-03-27T20:27:08.973Z,9.30
2018-03-27T20:29:38.834Z,9.30
2018-03-27T20:32:07.099Z,9.30
2018-03-27T20:34:35.627Z,9.40
2018-03-27T20:37:03.958Z,9.40
2018-03-27T20:39:32.896Z,9.40
2018-03-27T20:42:01.693Z,9.40
2018-03-27T20:44:29.922Z,9.40
2018-03-27T20:46:58.081Z,9.40
2018-03-27T20:49:26.669Z,9.50
2018-03-27T20:51:55.694Z,9.50
2018-03-27T20:54:23.848Z,9.50
2018-03-27T20:56:52.008Z,9.50
2018-03-27T20:59:21.258Z,9.60
2018-03-27T21:01:49.499Z,9.60
2018-03-27T21:04:17.854Z,9.60
2018-03-27T21:06:46.785Z,9.60
2018-03-27T21:09:14.941Z,9.60
2018-03-27T21:11:43.247Z,9.60
2018-03-27T21:14:11.616Z,9.60
2018-03-27T21:16:39.759Z,9.60
2018-03-27T21:19:08.752Z,9.60
2018-03-27T21:21:37.661Z,9.60
2018-03-27T21:24:05.845Z,9.60
2018-03-27T21:26:34.008Z,9.60
2018-03-27T21:29:02.163Z,9.70
2018-03-27T21:31:30.363Z,9.70
2018-03-27T21:33:59.660Z,9.70
2018-03-27T21:36:27.804Z,9.70
2018-03-27T21:38:56.931Z,9.70
2018-03-27T21:41:25.101Z,9.70
2018-03-27T21:43:53.439Z,9.70
2018-03-27T21:46:22.393Z,9.70
2018-03-27T21:48:50.562Z,9.70
2018-03-27T21:51:18.811Z,9.70
2018-03-27T21:53:48.695Z,9.70
2018-03-27T21:56:17.280Z,9.80
2018-03-27T21:58:46.210Z,9.70
2018-03-27T22:01:15.295Z,9.70
2018-03-27T22:03:43.534Z,9.70
2018-03-27T22:06:11.827Z,9.70
2018-03-27T22:08:40.889Z,9.80
2018-03-27T22:11:09.198Z,9.70
2018-03-27T22:13:38.946Z,9.70
2018-03-27T22:16:07.101Z,9.70
2018-03-27T22:18:35.981Z,9.70
2018-03-27T22:21:06.173Z,9.70
2018-03-27T22:23:34.332Z,9.70
2018-03-27T22:26:02.711Z,9.70
2018-03-27T22:28:30.866Z,9.70
2018-03-27T22:30:59.237Z,9.70
2018-03-27T22:33:27.411Z,9.70
2018-03-27T22:35:55.725Z,9.70
2018-03-27T22:38:23.900Z,9.70
2018-03-27T22:40:52.112Z,9.70
2018-03-27T22:43:20.373Z,9.70
2018-03-27T22:45:49.575Z,9.70
2018-03-27T22:48:19.284Z,9.70
2018-03-27T22:50:48.529Z,9.70
2018-03-27T22:53:17.618Z,9.70
2018-03-27T22:55:45.964Z,9.70
2018-03-27T22:58:14.886Z,9.60
2018-03-27T23:00:47.075Z,9.60
2018-03-27T23:03:15.265Z,9.60
2018-03-27T23:05:43.506Z,9.60
2018-03-27T23:08:11.652Z,9.60
2018-03-27T23:10:40.841Z,9.60
2018-03-27T23:13:09.869Z,9.60
2018-03-27T23:15:38.348Z,9.60
2018-03-27T23:18:06.622Z,9.60
2018-03-27T23:20:34.980Z,9.60
2018-03-27T23:23:03.948Z,9.60
2018-03-27T23:25:32.172Z,9.50
2018-03-27T23:28:00.940Z,9.60
2018-03-27T23:30:29.096Z,9.60
2018-03-27T23:32:58.247Z,9.50
2018-03-27T23:35:27.058Z,9.50
2018-03-27T23:37:55.231Z,9.50
2018-03-27T23:40:23.550Z,9.50
2018-03-27T23:42:51.687Z,9.40
2018-03-27T23:45:20.126Z,9.40
2018-03-27T23:47:48.301Z,9.40
2018-03-27T23:50:16.592Z,9.40
2018-03-27T23:52:44.758Z,9.30
2018-03-27T23:55:13.117Z,9.30
2018-03-27T23:57:41.292Z,9.40
